createdAt,value
2023-06-07T00:01:10.030Z,11.56
2023-06-07T00:03:38.170Z,11.56
2023-06-07T00:06:06.887Z,11.56
2023-06-07T00:08:33.845Z,11.53
2023-06-07T00:11:00.791Z,11.52
2023-06-07T00:13:28.114Z,11.50
2023-06-07T00:15:55.242Z,11.47
2023-06-07T00:18:22.566Z,11.49
2023-06-07T00:20:50.776Z,11.44
2023-06-07T00:23:17.954Z,11.42
2023-06-07T00:25:45.174Z,11.43
2023-06-07T00:28:12.125Z,11.44
2023-06-07T00:30:39.808Z,11.40
2023-06-07T00:33:06.707Z,11.42
2023-06-07T00:35:33.561Z,11.38
2023-06-07T00:38:00.371Z,11.33
2023-06-07T00:40:27.260Z,11.33
2023-06-07T00:42:54.168Z,11.32
2023-06-07T00:45:21.117Z,11.28
2023-06-07T00:47:48.052Z,11.20
2023-06-07T00:50:14.939Z,11.14
2023-06-07T00:52:41.879Z,11.08
2023-06-07T00:55:09.562Z,11.07
2023-06-07T00:57:36.587Z,11.05
2023-06-07T01:00:04.181Z,11.01
2023-06-07T01:02:32.059Z,10.91
2023-06-07T01:04:58.977Z,10.84
2023-06-07T01:07:26.333Z,10.77
2023-06-07T01:09:54.200Z,10.74
2023-06-07T01:12:21.287Z,10.68
2023-06-07T01:14:49.061Z,10.68
2023-06-07T01:17:18.419Z,10.71
2023-06-07T01:19:46.787Z,10.71
2023-06-07T01:22:13.496Z,10.71
2023-06-07T01:24:43.648Z,10.72
2023-06-07T01:27:11.377Z,10.67
2023-06-07T01:29:38.311Z,10.67
2023-06-07T01:32:07.323Z,10.65
2023-06-07T01:34:35.754Z,10.68
2023-06-07T01:37:02.588Z,10.70
2023-06-07T01:39:29.409Z,10.70
2023-06-07T01:41:56.205Z,10.74
2023-06-07T01:44:23.043Z,10.74
2023-06-07T01:46:49.963Z,10.65
2023-06-07T01:49:18.953Z,10.60
2023-06-07T01:51:45.836Z,10.53
2023-06-07T01:54:12.716Z,10.56
2023-06-07T01:56:55.498Z,10.56
2023-06-07T01:59:41.857Z,10.56
2023-06-07T02:02:24.660Z,10.54
2023-06-07T02:05:04.053Z,10.54
2023-06-07T02:07:33.822Z,10.52
2023-06-07T02:10:01.179Z,10.47
2023-06-07T02:12:28.233Z,10.43
2023-06-07T02:14:55.206Z,10.43
2023-06-07T02:17:22.061Z,10.37
2023-06-07T02:19:48.950Z,10.36
2023-06-07T02:22:15.731Z,10.30
2023-06-07T02:24:42.637Z,10.28
2023-06-07T02:27:13.896Z,10.23
2023-06-07T02:29:40.825Z,10.20
2023-06-07T02:32:08.434Z,10.19
2023-06-07T02:34:35.492Z,10.19
2023-06-07T02:37:02.288Z,10.20
2023-06-07T02:39:29.646Z,10.22
2023-06-07T02:41:56.538Z,10.25
2023-06-07T02:44:23.546Z,10.26
2023-06-07T02:46:50.452Z,10.29
2023-06-07T02:49:17.461Z,10.30
2023-06-07T02:51:44.422Z,10.30
2023-06-07T02:54:12.074Z,10.32
2023-06-07T02:56:39.096Z,10.30
2023-06-07T02:59:06.286Z,10.30
2023-06-07T03:01:34.586Z,10.29
2023-06-07T03:04:01.593Z,10.25
2023-06-07T03:06:30.873Z,10.19
2023-06-07T03:08:58.023Z,10.17
2023-06-07T03:11:25.019Z,10.20
2023-06-07T03:13:51.839Z,10.23
2023-06-07T03:16:18.867Z,10.28
2023-06-07T03:18:46.038Z,10.23
2023-06-07T03:21:12.834Z,10.25
2023-06-07T03:23:39.694Z,10.29
2023-06-07T03:26:08.723Z,10.30
2023-06-07T03:28:35.976Z,10.34
2023-06-07T03:31:03.659Z,10.33
2023-06-07T03:33:31.042Z,10.36
2023-06-07T03:35:58.665Z,10.42
2023-06-07T03:38:25.457Z,10.42
2023-06-07T03:40:52.342Z,10.43
2023-06-07T03:43:19.231Z,10.46
2023-06-07T03:45:46.130Z,10.50
2023-06-07T03:48:13.208Z,10.50
2023-06-07T03:50:40.233Z,10.54
2023-06-07T03:53:07.227Z,10.61
2023-06-07T03:55:34.707Z,10.65
2023-06-07T03:58:01.673Z,10.70
2023-06-07T04:00:29.190Z,10.71
2023-06-07T04:02:56.984Z,10.75
2023-06-07T04:05:25.919Z,10.81
2023-06-07T04:07:54.569Z,10.81
2023-06-07T04:10:21.535Z,10.81
2023-06-07T04:12:48.335Z,10.80
2023-06-07T04:15:15.196Z,10.82
2023-06-07T04:17:42.211Z,10.94
2023-06-07T04:20:11.189Z,11.04
2023-06-07T04:22:40.030Z,11.09
2023-06-07T04:25:08.217Z,11.12
2023-06-07T04:27:35.793Z,11.16
2023-06-07T04:30:05.766Z,11.23
2023-06-07T04:32:34.791Z,11.38
2023-06-07T04:35:01.726Z,11.47
2023-06-07T04:37:29.142Z,11.55
2023-06-07T04:39:56.960Z,11.70
2023-06-07T04:42:24.731Z,11.87
2023-06-07T04:44:54.225Z,12.02
2023-06-07T04:47:21.176Z,12.18
2023-06-07T04:49:53.586Z,12.28
2023-06-07T04:52:21.533Z,12.42
2023-06-07T04:54:48.592Z,12.53
2023-06-07T04:57:15.613Z,12.67
2023-06-07T04:59:50.076Z,12.77
2023-06-07T05:02:19.165Z,12.86
2023-06-07T05:04:46.102Z,12.99
2023-06-07T05:07:15.163Z,13.14
2023-06-07T05:09:42.037Z,13.25
2023-06-07T05:12:09.300Z,13.40
2023-06-07T05:14:36.106Z,13.54
2023-06-07T05:17:02.836Z,13.72
2023-06-07T05:19:30.999Z,13.87
2023-06-07T05:21:58.190Z,14.03
2023-06-07T05:24:25.146Z,14.18
2023-06-07T05:26:51.955Z,14.33
2023-06-07T05:29:18.972Z,14.48
2023-06-07T05:31:46.914Z,14.63
2023-06-07T05:34:14.225Z,14.82
2023-06-07T05:36:41.335Z,14.98
2023-06-07T05:39:08.450Z,15.09
2023-06-07T05:41:35.995Z,15.26
2023-06-07T05:44:03.106Z,15.46
2023-06-07T05:46:29.818Z,15.65
2023-06-07T05:48:57.005Z,15.79
2023-06-07T05:51:24.047Z,15.95
2023-06-07T05:53:50.889Z,16.06
2023-06-07T05:56:18.262Z,16.15
2023-06-07T05:58:46.050Z,16.20
2023-06-07T06:01:14.437Z,16.27
2023-06-07T06:03:41.546Z,16.45
2023-06-07T06:06:19.016Z,16.52
2023-06-07T06:08:46.553Z,16.63
2023-06-07T06:11:14.251Z,16.77
2023-06-07T06:13:42.016Z,16.89
2023-06-07T06:16:12.102Z,17.04
2023-06-07T06:18:41.083Z,17.15
2023-06-07T06:21:08.107Z,17.29
2023-06-07T06:23:35.846Z,17.46
2023-06-07T06:26:02.783Z,17.54
2023-06-07T06:28:30.393Z,17.80
2023-06-07T06:30:57.708Z,17.94
2023-06-07T06:33:24.597Z,17.98
2023-06-07T06:35:52.008Z,18.11
2023-06-07T06:38:19.398Z,18.19
2023-06-07T06:40:47.448Z,18.11
2023-06-07T06:43:14.282Z,18.22
2023-06-07T06:45:41.051Z,18.42
2023-06-07T06:48:08.047Z,18.53
2023-06-07T06:50:35.042Z,18.62
2023-06-07T06:53:03.227Z,18.70
2023-06-07T06:55:31.070Z,18.75
2023-06-07T06:57:58.194Z,18.80
2023-06-07T07:00:25.137Z,19.00
2023-06-07T07:02:52.731Z,19.20
2023-06-07T07:05:20.001Z,19.27
2023-06-07T07:07:47.911Z,19.41
2023-06-07T07:10:14.821Z,19.55
2023-06-07T07:12:43.000Z,19.59
2023-06-07T07:15:10.134Z,19.71
2023-06-07T07:17:50.386Z,19.75
2023-06-07T07:20:18.678Z,19.81
2023-06-07T07:22:48.075Z,20.02
2023-06-07T07:25:18.199Z,20.20
2023-06-07T07:27:45.356Z,20.38
2023-06-07T07:30:12.586Z,20.61
2023-06-07T07:32:39.990Z,20.58
2023-06-07T07:35:07.470Z,20.64
2023-06-07T07:37:34.513Z,20.79
2023-06-07T07:40:01.550Z,20.82
2023-06-07T07:42:28.482Z,20.91
2023-06-07T07:44:55.616Z,21.03
2023-06-07T07:47:22.448Z,21.10
2023-06-07T07:49:49.753Z,21.06
2023-06-07T07:52:17.375Z,21.09
2023-06-07T07:54:44.542Z,21.16
2023-06-07T07:57:11.810Z,21.23
2023-06-07T07:59:38.630Z,21.32
2023-06-07T08:02:05.711Z,21.33
2023-06-07T08:04:32.545Z,21.43
2023-06-07T08:06:59.303Z,21.55
2023-06-07T08:09:26.346Z,21.44
2023-06-07T08:11:53.295Z,21.50
2023-06-07T08:14:21.671Z,21.64
2023-06-07T08:16:49.550Z,21.64
2023-06-07T08:19:16.622Z,21.67
2023-06-07T08:21:45.133Z,21.68
2023-06-07T08:24:12.653Z,21.63
2023-06-07T08:26:39.666Z,21.67
2023-06-07T08:29:06.560Z,21.77
2023-06-07T08:31:33.525Z,21.97
2023-06-07T08:34:00.886Z,22.11
2023-06-07T08:36:27.715Z,22.30
2023-06-07T08:38:54.649Z,22.33
2023-06-07T08:41:22.600Z,22.40
2023-06-07T08:43:50.925Z,22.38
2023-06-07T08:46:18.571Z,22.46
2023-06-07T08:48:46.422Z,22.61
2023-06-07T08:51:13.858Z,22.71
2023-06-07T08:53:57.590Z,22.93
2023-06-07T08:56:26.103Z,23.12
2023-06-07T08:58:52.900Z,23.17
2023-06-07T09:01:22.300Z,23.28
2023-06-07T09:03:55.672Z,23.35
2023-06-07T09:06:23.742Z,23.39
2023-06-07T09:08:51.101Z,23.42
2023-06-07T09:11:17.910Z,23.45
2023-06-07T09:13:44.781Z,23.61
2023-06-07T09:16:14.378Z,23.72
2023-06-07T09:18:45.609Z,23.83
2023-06-07T09:21:33.648Z,24.03
2023-06-07T09:24:00.973Z,24.21
2023-06-07T09:26:46.151Z,24.44
2023-06-07T09:29:13.105Z,24.58
2023-06-07T09:31:40.045Z,24.49
2023-06-07T09:34:26.526Z,24.30
2023-06-07T09:36:54.486Z,24.21
2023-06-07T09:39:24.282Z,24.07
2023-06-07T09:41:52.716Z,23.83
2023-06-07T09:44:23.681Z,23.67
2023-06-07T09:46:51.496Z,23.63
2023-06-07T09:49:35.837Z,23.51
2023-06-07T09:52:03.976Z,23.48
2023-06-07T09:54:38.362Z,23.38
2023-06-07T09:57:12.746Z,23.29
2023-06-07T09:59:39.971Z,23.29
2023-06-07T10:02:29.435Z,23.25
2023-06-07T10:04:59.494Z,23.15
2023-06-07T10:07:32.039Z,23.14
2023-06-07T10:09:59.097Z,23.18
2023-06-07T10:12:29.266Z,23.37
2023-06-07T10:14:56.242Z,23.44
2023-06-07T10:17:29.081Z,23.51
2023-06-07T10:20:00.657Z,23.51
2023-06-07T10:22:38.015Z,23.46
2023-06-07T10:25:20.074Z,23.48
2023-06-07T10:28:06.382Z,23.53
2023-06-07T10:30:34.326Z,23.65
2023-06-07T10:33:01.723Z,23.66
2023-06-07T10:35:29.612Z,23.70
2023-06-07T10:37:56.682Z,23.79
2023-06-07T10:40:24.226Z,23.79
2023-06-07T10:42:52.333Z,23.72
2023-06-07T10:45:19.888Z,23.66
2023-06-07T10:47:47.440Z,23.56
2023-06-07T10:50:47.377Z,23.63
2023-06-07T10:53:15.118Z,23.58
2023-06-07T10:55:42.376Z,23.46
2023-06-07T10:58:28.924Z,23.42
2023-06-07T11:00:59.811Z,23.51
2023-06-07T11:03:26.876Z,23.61
2023-06-07T11:05:57.509Z,23.69
2023-06-07T11:08:29.256Z,23.73
2023-06-07T11:11:02.970Z,23.76
2023-06-07T11:13:32.948Z,23.77
2023-06-07T11:16:24.985Z,23.72
2023-06-07T11:18:58.475Z,23.65
2023-06-07T11:21:28.715Z,23.72
2023-06-07T11:24:14.341Z,23.90
2023-06-07T11:26:44.647Z,23.94
2023-06-07T11:29:11.606Z,24.03
2023-06-07T11:31:38.701Z,24.10
2023-06-07T11:34:05.689Z,24.09
2023-06-07T11:36:33.525Z,24.07
2023-06-07T11:39:07.867Z,24.16
2023-06-07T11:41:34.857Z,24.04
2023-06-07T11:44:03.188Z,23.87
2023-06-07T11:46:36.765Z,23.76
2023-06-07T11:49:05.206Z,23.72
2023-06-07T11:51:33.451Z,23.74
2023-06-07T11:54:00.759Z,23.76
2023-06-07T11:56:28.940Z,23.80
2023-06-07T11:58:56.082Z,23.74
2023-06-07T12:01:23.274Z,23.69
2023-06-07T12:03:50.421Z,23.63
2023-06-07T12:06:17.399Z,23.72
2023-06-07T12:08:44.491Z,23.79
2023-06-07T12:11:14.982Z,23.89
2023-06-07T12:13:42.214Z,23.93
2023-06-07T12:16:09.496Z,23.92
2023-06-07T12:18:36.964Z,23.97
2023-06-07T12:21:04.729Z,24.13
2023-06-07T12:23:31.646Z,24.20
2023-06-07T12:26:10.907Z,24.24
2023-06-07T12:28:38.734Z,24.28
2023-06-07T12:31:14.544Z,24.32
2023-06-07T12:33:49.454Z,24.31
2023-06-07T12:36:18.012Z,24.30
2023-06-07T12:38:44.985Z,24.28
2023-06-07T12:41:11.967Z,24.09
2023-06-07T12:43:39.091Z,23.92
2023-06-07T12:46:07.385Z,23.80
2023-06-07T12:48:34.823Z,23.84
2023-06-07T12:51:02.848Z,23.93
2023-06-07T12:53:31.667Z,23.94
2023-06-07T12:55:58.731Z,23.90
2023-06-07T12:58:26.035Z,23.80
2023-06-07T13:00:52.986Z,23.73
2023-06-07T13:03:20.846Z,23.65
2023-06-07T13:05:48.827Z,23.61
2023-06-07T13:08:17.597Z,23.65
2023-06-07T13:10:44.707Z,23.66
2023-06-07T13:13:13.087Z,23.63
2023-06-07T13:15:39.912Z,23.58
2023-06-07T13:18:07.224Z,23.63
2023-06-07T13:20:34.223Z,23.67
2023-06-07T13:23:01.119Z,23.69
2023-06-07T13:25:28.282Z,23.63
2023-06-07T13:27:55.385Z,23.65
2023-06-07T13:30:22.422Z,23.59
2023-06-07T13:32:51.034Z,23.66
2023-06-07T13:35:17.940Z,23.74
2023-06-07T13:37:44.999Z,23.74
2023-06-07T13:40:12.526Z,23.82
2023-06-07T13:42:39.754Z,23.82
2023-06-07T13:45:07.706Z,23.72
2023-06-07T13:47:35.021Z,23.61
2023-06-07T13:50:02.325Z,23.51
2023-06-07T13:52:29.984Z,23.58
2023-06-07T13:54:58.351Z,23.61
2023-06-07T13:57:25.447Z,23.66
2023-06-07T13:59:52.578Z,23.67
2023-06-07T14:02:20.202Z,23.56
2023-06-07T14:04:49.797Z,23.46
2023-06-07T14:07:18.942Z,23.44
2023-06-07T14:09:46.866Z,23.37
2023-06-07T14:12:13.960Z,23.34
2023-06-07T14:14:41.272Z,23.24
2023-06-07T14:17:08.455Z,23.15
2023-06-07T14:19:35.942Z,23.08
2023-06-07T14:22:02.815Z,23.01
2023-06-07T14:24:29.708Z,22.83
2023-06-07T14:26:56.444Z,22.73
2023-06-07T14:29:23.198Z,22.76
2023-06-07T14:31:50.247Z,22.70
2023-06-07T14:34:17.212Z,22.67
2023-06-07T14:36:45.012Z,22.64
2023-06-07T14:39:11.847Z,22.61
2023-06-07T14:41:46.342Z,22.52
2023-06-07T14:44:13.160Z,22.45
2023-06-07T14:46:39.949Z,22.40
2023-06-07T14:49:06.786Z,22.35
2023-06-07T14:51:33.658Z,22.29
2023-06-07T14:54:01.323Z,22.23
2023-06-07T14:56:29.123Z,22.12
2023-06-07T14:58:56.315Z,22.05
2023-06-07T15:01:24.514Z,22.01
2023-06-07T15:03:51.542Z,21.98
2023-06-07T15:06:18.445Z,21.91
2023-06-07T15:08:47.681Z,21.87
2023-06-07T15:11:16.424Z,21.85
2023-06-07T15:13:43.419Z,21.77
2023-06-07T15:16:10.200Z,21.70
2023-06-07T15:18:38.343Z,21.63
2023-06-07T15:21:05.839Z,21.63
2023-06-07T15:23:32.670Z,21.64
2023-06-07T15:26:00.890Z,21.61
2023-06-07T15:28:27.970Z,21.58
2023-06-07T15:30:54.994Z,21.53
2023-06-07T15:33:21.909Z,21.47
2023-06-07T15:35:49.473Z,21.39
2023-06-07T15:38:16.320Z,21.30
2023-06-07T15:40:43.575Z,21.25
2023-06-07T15:43:10.372Z,21.20
2023-06-07T15:45:37.203Z,21.16
2023-06-07T15:48:04.209Z,21.18
2023-06-07T15:50:31.731Z,21.06
2023-06-07T15:52:59.082Z,20.99
2023-06-07T15:55:28.680Z,20.89
2023-06-07T15:57:56.638Z,20.82
2023-06-07T16:00:36.679Z,20.77
2023-06-07T16:03:06.098Z,20.71
2023-06-07T16:05:33.464Z,20.63
2023-06-07T16:08:04.844Z,20.61
2023-06-07T16:10:37.744Z,20.55
2023-06-07T16:13:04.471Z,20.48
2023-06-07T16:15:31.578Z,20.44
2023-06-07T16:17:58.439Z,20.43
2023-06-07T16:20:25.471Z,20.38
2023-06-07T16:22:52.646Z,20.27
2023-06-07T16:25:19.978Z,20.19
2023-06-07T16:27:46.951Z,20.10
2023-06-07T16:30:13.929Z,20.05
2023-06-07T16:32:41.000Z,20.02
2023-06-07T16:35:08.202Z,19.97
2023-06-07T16:37:35.841Z,19.93
2023-06-07T16:40:03.248Z,19.83
2023-06-07T16:42:31.113Z,19.76
2023-06-07T16:44:58.224Z,19.71
2023-06-07T16:47:28.120Z,19.62
2023-06-07T16:49:58.749Z,19.54
2023-06-07T16:52:25.790Z,19.50
2023-06-07T16:54:53.012Z,19.38
2023-06-07T16:57:20.252Z,19.30
2023-06-07T16:59:47.140Z,19.27
2023-06-07T17:02:14.043Z,19.17
2023-06-07T17:04:41.445Z,19.08
2023-06-07T17:07:08.380Z,19.03
2023-06-07T17:09:35.333Z,18.96
2023-06-07T17:12:02.285Z,18.92
2023-06-07T17:14:29.225Z,18.87
2023-06-07T17:16:56.277Z,18.86
2023-06-07T17:19:23.370Z,18.87
2023-06-07T17:21:50.522Z,18.85
2023-06-07T17:24:21.069Z,18.83
2023-06-07T17:26:49.009Z,18.85
2023-06-07T17:29:28.787Z,18.83
2023-06-07T17:31:56.698Z,18.77
2023-06-07T17:34:23.526Z,18.75
2023-06-07T17:36:50.589Z,18.69
2023-06-07T17:39:18.639Z,18.63
2023-06-07T17:41:45.588Z,18.52
2023-06-07T17:44:12.438Z,18.46
2023-06-07T17:46:39.466Z,18.37
2023-06-07T17:49:07.370Z,18.25
2023-06-07T17:51:34.241Z,18.19
2023-06-07T17:54:05.900Z,18.11
2023-06-07T17:56:32.796Z,18.00
2023-06-07T17:58:59.698Z,17.91
2023-06-07T18:01:26.921Z,17.86
2023-06-07T18:03:54.782Z,17.80
2023-06-07T18:06:21.767Z,17.73
2023-06-07T18:08:48.675Z,17.66
2023-06-07T18:11:15.594Z,17.59
2023-06-07T18:13:42.619Z,17.53
2023-06-07T18:16:10.135Z,17.45
2023-06-07T18:18:38.388Z,17.39
2023-06-07T18:21:07.273Z,17.29
2023-06-07T18:23:34.229Z,17.22
2023-06-07T18:26:02.772Z,17.15
2023-06-07T18:28:29.617Z,17.07
2023-06-07T18:30:56.867Z,17.01
2023-06-07T18:33:23.734Z,16.94
2023-06-07T18:35:50.736Z,16.87
2023-06-07T18:38:18.094Z,16.83
2023-06-07T18:40:45.192Z,16.73
2023-06-07T18:43:12.913Z,16.67
2023-06-07T18:45:39.929Z,16.61
2023-06-07T18:48:07.003Z,16.59
2023-06-07T18:50:33.868Z,16.50
2023-06-07T18:53:00.850Z,16.43
2023-06-07T18:55:27.830Z,16.34
2023-06-07T18:57:54.826Z,16.29
2023-06-07T19:00:25.954Z,16.20
2023-06-07T19:02:54.558Z,16.19
2023-06-07T19:05:22.852Z,16.10
2023-06-07T19:07:49.756Z,16.06
2023-06-07T19:10:17.048Z,15.98
2023-06-07T19:12:44.599Z,15.97
2023-06-07T19:15:12.642Z,15.89
2023-06-07T19:17:39.476Z,15.85
2023-06-07T19:20:07.480Z,15.82
2023-06-07T19:22:34.321Z,15.72
2023-06-07T19:25:01.284Z,15.65
2023-06-07T19:27:28.127Z,15.60
2023-06-07T19:29:54.974Z,15.49
2023-06-07T19:32:21.860Z,15.44
2023-06-07T19:34:50.150Z,15.40
2023-06-07T19:37:16.924Z,15.33
2023-06-07T19:39:44.211Z,15.24
2023-06-07T19:42:12.486Z,15.19
2023-06-07T19:44:41.074Z,15.16
2023-06-07T19:47:08.727Z,15.10
2023-06-07T19:49:35.609Z,15.00
2023-06-07T19:52:04.085Z,14.93
2023-06-07T19:54:31.171Z,14.86
2023-06-07T19:56:57.960Z,14.82
2023-06-07T19:59:24.794Z,14.78
2023-06-07T20:01:51.671Z,14.72
2023-06-07T20:04:18.559Z,14.68
2023-06-07T20:06:45.589Z,14.65
2023-06-07T20:09:12.350Z,14.63
2023-06-07T20:11:39.175Z,14.51
2023-06-07T20:14:06.072Z,14.42
2023-06-07T20:16:32.822Z,14.38
2023-06-07T20:18:59.850Z,14.31
2023-06-07T20:21:28.072Z,14.24
2023-06-07T20:23:55.010Z,14.18
2023-06-07T20:26:21.741Z,14.09
2023-06-07T20:28:48.564Z,14.07
2023-06-07T20:31:15.372Z,14.06
2023-06-07T20:33:42.228Z,14.00
2023-06-07T20:36:09.512Z,13.97
2023-06-07T20:38:36.272Z,13.96
2023-06-07T20:41:02.982Z,13.89
2023-06-07T20:43:29.981Z,13.87
2023-06-07T20:45:56.830Z,13.89
2023-06-07T20:48:23.729Z,13.86
2023-06-07T20:50:50.568Z,13.78
2023-06-07T20:53:17.521Z,13.70
2023-06-07T20:55:45.053Z,13.66
2023-06-07T20:58:12.329Z,13.65
2023-06-07T21:00:41.310Z,13.63
2023-06-07T21:03:08.902Z,13.62
2023-06-07T21:05:35.968Z,13.59
2023-06-07T21:08:03.696Z,13.54
2023-06-07T21:10:30.652Z,13.51
2023-06-07T21:12:57.471Z,13.48
2023-06-07T21:15:24.828Z,13.41
2023-06-07T21:17:51.818Z,13.38
2023-06-07T21:20:19.033Z,13.37
2023-06-07T21:22:45.925Z,13.32
2023-06-07T21:25:12.770Z,13.32
2023-06-07T21:27:39.710Z,13.28
2023-06-07T21:30:07.569Z,13.24
2023-06-07T21:32:34.694Z,13.21
2023-06-07T21:35:01.679Z,13.20
2023-06-07T21:37:28.424Z,13.18
2023-06-07T21:39:55.588Z,13.20
2023-06-07T21:42:22.360Z,13.18
2023-06-07T21:44:49.328Z,13.17
2023-06-07T21:47:16.306Z,13.17
2023-06-07T21:49:43.603Z,13.14
2023-06-07T21:52:10.804Z,13.06
2023-06-07T21:54:44.884Z,12.99
2023-06-07T21:57:12.330Z,12.96
2023-06-07T21:59:39.328Z,12.96
2023-06-07T22:02:07.804Z,12.97
2023-06-07T22:04:34.646Z,12.93
2023-06-07T22:07:01.540Z,12.93
2023-06-07T22:09:28.492Z,12.90
2023-06-07T22:11:55.742Z,12.83
2023-06-07T22:14:23.111Z,12.82
2023-06-07T22:16:50.679Z,12.75
2023-06-07T22:19:20.295Z,12.75
2023-06-07T22:21:48.651Z,12.72
2023-06-07T22:24:19.866Z,12.70
2023-06-07T22:26:47.205Z,12.66
2023-06-07T22:29:14.360Z,12.63
2023-06-07T22:31:41.381Z,12.60
2023-06-07T22:34:08.494Z,12.59
2023-06-07T22:36:42.515Z,12.56
2023-06-07T22:39:09.727Z,12.57
2023-06-07T22:41:36.724Z,12.55
2023-06-07T22:44:04.184Z,12.53
2023-06-07T22:46:32.416Z,12.48
2023-06-07T22:49:01.995Z,12.48
2023-06-07T22:51:34.300Z,12.46
2023-06-07T22:54:02.133Z,12.45
2023-06-07T22:56:29.239Z,12.44
2023-06-07T22:58:56.562Z,12.38
2023-06-07T23:01:24.494Z,12.39
2023-06-07T23:03:51.772Z,12.34
2023-06-07T23:06:20.884Z,12.29
2023-06-07T23:08:54.644Z,12.26
2023-06-07T23:11:21.887Z,12.21
2023-06-07T23:13:48.834Z,12.15
2023-06-07T23:16:15.867Z,12.11
2023-06-07T23:18:42.619Z,12.11
2023-06-07T23:21:10.233Z,12.05
2023-06-07T23:23:37.077Z,12.01
2023-06-07T23:26:06.304Z,11.97
2023-06-07T23:28:33.145Z,11.94
2023-06-07T23:30:59.946Z,11.95
2023-06-07T23:33:27.912Z,11.94
2023-06-07T23:35:55.923Z,11.93
2023-06-07T23:38:23.864Z,11.88
2023-06-07T23:40:50.899Z,11.87
2023-06-07T23:43:17.856Z,11.86
2023-06-07T23:45:44.854Z,11.83
2023-06-07T23:48:11.950Z,11.80
2023-06-07T23:50:38.784Z,11.80
2023-06-07T23:53:07.833Z,11.71
2023-06-07T23:55:35.584Z,11.70
2023-06-07T23:58:02.929Z,11.66
